Snow/Ice From: 16-12-2017 16:00 Until: 17-12-2017 16:00 warning for: Snow/Ice Level: Yellow info button

Although rather usual in this region, locally or potentially dangerous phenomena are expected. (such as local winds, summer thunderstorms, rising streams or high waves) Be aware and pay attention to the latest weather updates, especially if you carry out activities exposed to weather or close to a stream or shoreline. 


Meteo18 Weather Cam more information Meteo18 Weather Cam


Thunder radar more information blitzortung!


warning for Snow/Ice more information rain snow radar


Visit our other weather sites:

Template documentation
and downloads

And another site



Weather Underground History page Text

Daily Summary for May 16, 2016 Units:  Metric    English   Both
« Previous Day
Next Day »
Daily Weekly Monthly Yearly Custom
  High: Low: Average:
Temperature: 17.7 °C 1.5 °C 10 °C
Dew Point: 9.6 °C 0.9 °C 5.8 °C
Humidity: 97 % 50 % 77 %
Wind Speed: 9.7 km/h 0.0 km/h 0.8 km/h
Wind Gust: 12.9 km/h - -
Wind:- - SSW
Pressure: 1023.9 hPa 1020.5 hPa -
Precipitation: 0.0 mm    
Historical Graphs
 
 
Tabular Data for May 16, 2016
Time Temperature Dew Point Pressure Wind Wind Speed Wind Gust Humidity Rainfall Rate (Hourly)
00:02 3.9 °C 3.0 °C 1023.9 hPa Calm     94 % 0.0 mm
00:12 3.8 °C 2.9 °C 1023.6 hPa Calm     94 % 0.0 mm
00:17 3.7 °C 2.8 °C 1023.6 hPa Calm     94 % 0.0 mm
00:22 3.7 °C 2.8 °C 1023.6 hPa Calm     94 % 0.0 mm
00:32 3.6 °C 2.7 °C 1023.9 hPa Calm     94 % 0.0 mm
00:37 3.6 °C 2.9 °C 1023.9 hPa Calm     95 % 0.0 mm
00:42 3.6 °C 2.9 °C 1023.9 hPa Calm     95 % 0.0 mm
00:52 3.5 °C 2.8 °C 1023.9 hPa Calm     95 % 0.0 mm
00:57 3.6 °C 2.9 °C 1023.9 hPa Calm     95 % 0.0 mm
01:02 3.6 °C 2.9 °C 1023.9 hPa Calm     95 % 0.0 mm
01:12 3.5 °C 2.8 °C 1023.9 hPa Calm     95 % 0.0 mm
01:17 3.4 °C 2.7 °C 1023.9 hPa Calm     95 % 0.0 mm
01:22 3.4 °C 2.7 °C 1023.9 hPa Calm     95 % 0.0 mm
01:27 3.3 °C 2.6 °C 1023.9 hPa Calm     95 % 0.0 mm
01:32 3.3 °C 2.6 °C 1023.9 hPa Calm     95 % 0.0 mm
01:47 3.2 °C 2.5 °C 1023.9 hPa Calm     95 % 0.0 mm
01:52 3.2 °C 2.5 °C 1023.6 hPa Calm     95 % 0.0 mm
01:57 3.2 °C 2.5 °C 1023.6 hPa Calm     95 % 0.0 mm
02:02 3.1 °C 2.4 °C 1023.6 hPa Calm     95 % 0.0 mm
02:12 2.9 °C 2.2 °C 1023.6 hPa Calm     95 % 0.0 mm
02:17 2.9 °C 2.2 °C 1023.6 hPa Calm     95 % 0.0 mm
02:22 2.8 °C 2.1 °C 1023.6 hPa Calm     95 % 0.0 mm
02:27 2.8 °C 2.2 °C 1023.6 hPa Calm     96 % 0.0 mm
02:32 2.8 °C 2.2 °C 1023.6 hPa Calm     96 % 0.0 mm
02:37 2.8 °C 2.2 °C 1023.2 hPa Calm     96 % 0.0 mm
02:42 2.7 °C 2.1 °C 1023.2 hPa Calm     96 % 0.0 mm
02:47 2.6 °C 2.0 °C 1023.2 hPa Calm     96 % 0.0 mm
02:52 2.7 °C 2.1 °C 1023.2 hPa Calm     96 % 0.0 mm
02:57 2.7 °C 2.1 °C 1023.2 hPa Calm     96 % 0.0 mm
03:02 2.6 °C 2.0 °C 1023.2 hPa Calm     96 % 0.0 mm
03:07 2.4 °C 1.8 °C 1023.2 hPa Calm     96 % 0.0 mm
03:12 2.3 °C 1.7 °C 1023.2 hPa Calm     96 % 0.0 mm
03:17 2.2 °C 1.6 °C 1023.2 hPa Calm     96 % 0.0 mm
03:22 2.1 °C 1.5 °C 1023.2 hPa Calm     96 % 0.0 mm
03:27 2.1 °C 1.5 °C 1023.2 hPa Calm     96 % 0.0 mm
03:32 2.2 °C 1.6 °C 1022.9 hPa Calm     96 % 0.0 mm
03:37 2.2 °C 1.6 °C 1023.2 hPa Calm     96 % 0.0 mm
03:42 2.2 °C 1.6 °C 1022.9 hPa Calm     96 % 0.0 mm
03:47 2.2 °C 1.6 °C 1022.9 hPa Calm     96 % 0.0 mm
03:52 2.2 °C 1.6 °C 1022.9 hPa Calm     96 % 0.0 mm
03:57 2.2 °C 1.6 °C 1022.9 hPa Calm     96 % 0.0 mm
04:12 1.9 °C 1.3 °C 1022.9 hPa Calm     96 % 0.0 mm
04:17 1.9 °C 1.3 °C 1022.9 hPa Calm     96 % 0.0 mm
04:27 1.8 °C 1.2 °C 1022.9 hPa Calm     96 % 0.0 mm
04:32 1.9 °C 1.3 °C 1022.9 hPa Calm     96 % 0.0 mm
04:37 1.8 °C 1.2 °C 1022.9 hPa Calm     96 % 0.0 mm
04:42 1.8 °C 1.2 °C 1022.9 hPa Calm     96 % 0.0 mm
04:47 1.8 °C 1.2 °C 1022.9 hPa Calm     96 % 0.0 mm
04:52 1.8 °C 1.2 °C 1022.9 hPa Calm     96 % 0.0 mm
04:57 1.8 °C 1.2 °C 1022.6 hPa Calm     96 % 0.0 mm
05:02 1.7 °C 1.1 °C 1022.6 hPa Calm     96 % 0.0 mm
05:12 1.8 °C 1.4 °C 1022.6 hPa Calm     97 % 0.0 mm
05:17 1.7 °C 1.3 °C 1022.6 hPa Calm     97 % 0.0 mm
05:22 1.9 °C 1.5 °C 1022.6 hPa Calm     97 % 0.0 mm
05:27 1.9 °C 1.5 °C 1022.6 hPa Calm     97 % 0.0 mm
05:32 1.8 °C 1.4 °C 1022.6 hPa Calm     97 % 0.0 mm
05:37 1.6 °C 1.0 °C 1022.6 hPa Calm     96 % 0.0 mm
05:42 1.6 °C 1.0 °C 1022.6 hPa Calm     96 % 0.0 mm
05:47 1.5 °C 0.9 °C 1022.6 hPa Calm     96 % 0.0 mm
05:52 1.6 °C 1.2 °C 1022.6 hPa Calm     97 % 0.0 mm
05:57 1.5 °C 1.1 °C 1022.6 hPa Calm     97 % 0.0 mm
06:02 1.6 °C 1.2 °C 1022.2 hPa Calm     97 % 0.0 mm
06:12 1.7 °C 1.3 °C 1022.2 hPa Calm     97 % 0.0 mm
06:17 1.7 °C 1.3 °C 1022.6 hPa Calm     97 % 0.0 mm
06:22 1.6 °C 1.2 °C 1022.2 hPa Calm     97 % 0.0 mm
06:32 2.1 °C 1.7 °C 1022.2 hPa Calm     97 % 0.0 mm
06:37 1.9 °C 1.5 °C 1022.6 hPa Calm     97 % 0.0 mm
06:42 1.8 °C 1.4 °C 1022.6 hPa Calm     97 % 0.0 mm
06:47 2.2 °C 1.8 °C 1022.6 hPa Calm     97 % 0.0 mm
06:52 2.4 °C 2.0 °C 1022.6 hPa Calm     97 % 0.0 mm
06:57 2.4 °C 2.0 °C 1022.6 hPa Calm     97 % 0.0 mm
07:02 2.5 °C 2.1 °C 1022.6 hPa Calm     97 % 0.0 mm
07:07 2.7 °C 2.3 °C 1022.6 hPa Calm     97 % 0.0 mm
07:12 2.9 °C 2.5 °C 1022.6 hPa Calm     97 % 0.0 mm
07:17 3.2 °C 2.8 °C 1022.6 hPa Calm     97 % 0.0 mm
07:22 3.3 °C 2.9 °C 1022.6 hPa Calm     97 % 0.0 mm
07:27 3.5 °C 3.1 °C 1022.6 hPa Calm     97 % 0.0 mm
07:32 3.5 °C 2.9 °C 1022.6 hPa Calm     96 % 0.0 mm
07:37 3.5 °C 2.9 °C 1022.6 hPa Calm     96 % 0.0 mm
07:42 3.6 °C 3.0 °C 1022.6 hPa Calm     96 % 0.0 mm
07:47 3.7 °C 3.1 °C 1022.9 hPa Calm     96 % 0.0 mm
07:57 4.1 °C 3.5 °C 1022.9 hPa Calm     96 % 0.0 mm
08:02 4.2 °C 3.6 °C 1022.9 hPa Calm     96 % 0.0 mm
08:07 4.5 °C 3.9 °C 1022.6 hPa Calm     96 % 0.0 mm
08:12 4.8 °C 4.2 °C 1022.6 hPa West 1.6 km/h   96 % 0.0 mm
08:17 5.1 °C 4.5 °C 1022.9 hPa Calm     96 % 0.0 mm
08:22 5.4 °C 4.8 °C 1022.9 hPa Calm   1.6 km/h 96 % 0.0 mm
08:32 6.2 °C 5.6 °C 1022.9 hPa Calm   1.6 km/h 96 % 0.0 mm
08:37 6.5 °C 5.9 °C 1022.9 hPa Calm   1.6 km/h 96 % 0.0 mm
08:42 6.7 °C 6.0 °C 1022.9 hPa Calm   1.6 km/h 95 % 0.0 mm
08:47 7.2 °C 6.6 °C 1022.9 hPa Calm   1.6 km/h 96 % 0.0 mm
08:52 7.8 °C 7.2 °C 1022.9 hPa Calm   1.6 km/h 96 % 0.0 mm
08:57 8.3 °C 7.4 °C 1022.9 hPa Calm   1.6 km/h 94 % 0.0 mm
09:02 8.9 °C 7.8 °C 1022.9 hPa Calm   1.6 km/h 93 % 0.0 mm
09:07 9.4 °C 7.5 °C 1022.9 hPa Calm   3.2 km/h 88 % 0.0 mm
09:12 9.9 °C 8.0 °C 1022.9 hPa Calm   3.2 km/h 88 % 0.0 mm
09:17 10.4 °C 8.2 °C 1022.9 hPa Calm   3.2 km/h 86 % 0.0 mm
09:22 10.9 °C 7.9 °C 1022.9 hPa Calm   3.2 km/h 82 % 0.0 mm
09:27 11.3 °C 8.5 °C 1022.9 hPa Calm   3.2 km/h 83 % 0.0 mm
09:32 11.6 °C 8.1 °C 1022.9 hPa Calm   3.2 km/h 79 % 0.0 mm
09:37 12.1 °C 7.0 °C 1022.9 hPa Calm   3.2 km/h 71 % 0.0 mm
09:42 12.7 °C 8.0 °C 1022.9 hPa Calm   6.4 km/h 73 % 0.0 mm
09:47 13.0 °C 7.7 °C 1022.9 hPa SW 1.6 km/h 6.4 km/h 70 % 0.0 mm
09:52 13.2 °C 6.8 °C 1022.9 hPa Calm   6.4 km/h 65 % 0.0 mm
10:02 14.0 °C 7.1 °C 1022.9 hPa SSW 1.6 km/h 9.7 km/h 63 % 0.0 mm
10:07 13.6 °C 6.9 °C 1022.9 hPa Calm   6.4 km/h 64 % 0.0 mm
10:12 13.6 °C 7.1 °C 1022.9 hPa WSW 1.6 km/h 6.4 km/h 65 % 0.0 mm
10:17 14.3 °C 8.0 °C 1022.6 hPa WSW 1.6 km/h 6.4 km/h 66 % 0.0 mm
10:22 14.4 °C 8.3 °C 1022.6 hPa WSW 4.8 km/h 8.0 km/h 67 % 0.0 mm
10:27 14.3 °C 7.4 °C 1022.6 hPa Calm   8.0 km/h 63 % 0.0 mm
10:32 14.1 °C 7.2 °C 1022.6 hPa Calm   8.0 km/h 63 % 0.0 mm
10:42 14.3 °C 7.1 °C 1022.6 hPa SW 4.8 km/h 8.0 km/h 62 % 0.0 mm
10:52 14.7 °C 8.0 °C 1022.6 hPa WSW 6.4 km/h 12.9 km/h 64 % 0.0 mm
10:57 14.7 °C 8.2 °C 1022.6 hPa WSW 1.6 km/h 12.9 km/h 65 % 0.0 mm
11:02 14.6 °C 7.4 °C 1022.6 hPa WSW 4.8 km/h 11.3 km/h 62 % 0.0 mm
11:07 14.5 °C 8.0 °C 1022.6 hPa WSW 1.6 km/h 11.3 km/h 65 % 0.0 mm
11:12 14.6 °C 8.1 °C 1022.6 hPa SE 3.2 km/h 11.3 km/h 65 % 0.0 mm
11:17 14.5 °C 8.2 °C 1022.6 hPa WSW 1.6 km/h 8.0 km/h 66 % 0.0 mm
11:22 14.3 °C 7.8 °C 1022.6 hPa Calm   6.4 km/h 65 % 0.0 mm
11:27 14.4 °C 8.3 °C 1022.6 hPa Calm   6.4 km/h 67 % 0.0 mm
11:32 14.5 °C 8.2 °C 1022.6 hPa Calm   6.4 km/h 66 % 0.0 mm
11:37 14.5 °C 8.4 °C 1022.6 hPa WSW 3.2 km/h 3.2 km/h 67 % 0.0 mm
11:42 14.3 °C 7.8 °C 1022.6 hPa SW 1.6 km/h 8.0 km/h 65 % 0.0 mm
11:52 14.4 °C 7.9 °C 1022.6 hPa WSW 1.6 km/h 8.0 km/h 65 % 0.0 mm
11:57 14.4 °C 8.3 °C 1022.6 hPa WSW 1.6 km/h 8.0 km/h 67 % 0.0 mm
12:02 14.7 °C 8.4 °C 1022.6 hPa WSW 1.6 km/h 8.0 km/h 66 % 0.0 mm
12:07 14.9 °C 8.4 °C 1022.6 hPa SW 4.8 km/h 6.4 km/h 65 % 0.0 mm
12:12 14.9 °C 7.9 °C 1022.6 hPa SW 9.7 km/h 9.7 km/h 63 % 0.0 mm
12:17 14.8 °C 8.3 °C 1022.2 hPa Calm   8.0 km/h 65 % 0.0 mm
12:32 15.5 °C 8.9 °C 1022.2 hPa Calm   9.7 km/h 65 % 0.0 mm
12:37 15.4 °C 7.7 °C 1022.2 hPa WSW 6.4 km/h 8.0 km/h 60 % 0.0 mm
12:42 15.3 °C 8.3 °C 1022.2 hPa West 3.2 km/h 9.7 km/h 63 % 0.0 mm
12:47 15.2 °C 8.2 °C 1022.2 hPa Calm   11.3 km/h 63 % 0.0 mm
12:52 15.1 °C 8.1 °C 1022.2 hPa SW 1.6 km/h 11.3 km/h 63 % 0.0 mm
13:02 15.3 °C 8.1 °C 1022.2 hPa WSW 4.8 km/h 9.7 km/h 62 % 0.0 mm
13:07 15.2 °C 8.2 °C 1021.9 hPa WSW 3.2 km/h 8.0 km/h 63 % 0.0 mm
13:12 15.2 °C 7.7 °C 1021.9 hPa WSW 3.2 km/h 8.0 km/h 61 % 0.0 mm
13:17 15.3 °C 7.6 °C 1021.9 hPa SW 4.8 km/h 12.9 km/h 60 % 0.0 mm
13:22 15.1 °C 6.6 °C 1021.9 hPa WSW 1.6 km/h 12.9 km/h 57 % 0.0 mm
13:37 15.2 °C 7.7 °C 1021.9 hPa SW 1.6 km/h 8.0 km/h 61 % 0.0 mm
13:42 15.1 °C 7.1 °C 1021.9 hPa WSW 8.0 km/h 8.0 km/h 59 % 0.0 mm
13:52 14.9 °C 7.4 °C 1021.9 hPa WSW 4.8 km/h 8.0 km/h 61 % 0.0 mm
13:57 15.0 °C 7.1 °C 1021.9 hPa Calm   8.0 km/h 59 % 0.0 mm
14:02 15.2 °C 8.4 °C 1021.9 hPa Calm   6.4 km/h 64 % 0.0 mm
14:07 15.5 °C 8.2 °C 1021.9 hPa Calm   6.4 km/h 62 % 0.0 mm
14:12 15.5 °C 7.8 °C 1021.9 hPa SW 3.2 km/h 6.4 km/h 60 % 0.0 mm
14:17 15.5 °C 8.2 °C 1021.9 hPa WSW 3.2 km/h 4.8 km/h 62 % 0.0 mm
14:22 15.5 °C 8.2 °C 1021.6 hPa SW 8.0 km/h 8.0 km/h 62 % 0.0 mm
14:32 15.5 °C 8.0 °C 1021.9 hPa Calm   9.7 km/h 61 % 0.0 mm
14:37 15.3 °C 7.6 °C 1021.6 hPa Calm   11.3 km/h 60 % 0.0 mm
14:42 15.1 °C 7.4 °C 1021.6 hPa SW 1.6 km/h 11.3 km/h 60 % 0.0 mm
14:52 15.1 °C 8.1 °C 1021.6 hPa SW 3.2 km/h 8.0 km/h 63 % 0.0 mm
14:57 15.3 °C 8.1 °C 1021.6 hPa WSW 1.6 km/h 8.0 km/h 62 % 0.0 mm
15:02 15.6 °C 9.0 °C 1021.6 hPa SE 6.4 km/h 8.0 km/h 65 % 0.0 mm
15:07 15.8 °C 8.5 °C 1021.6 hPa NW 4.8 km/h 8.0 km/h 62 % 0.0 mm
15:12 15.9 °C 8.6 °C 1021.6 hPa Calm   6.4 km/h 62 % 0.0 mm
15:17 15.8 °C 8.3 °C 1021.6 hPa SW 3.2 km/h 9.7 km/h 61 % 0.0 mm
15:22 15.8 °C 8.8 °C 1021.6 hPa SW 3.2 km/h 9.7 km/h 63 % 0.0 mm
15:27 15.7 °C 8.7 °C 1021.6 hPa WSW 3.2 km/h 8.0 km/h 63 % 0.0 mm
15:32 15.8 °C 9.2 °C 1021.6 hPa SW 3.2 km/h 6.4 km/h 65 % 0.0 mm
15:37 16.0 °C 9.0 °C 1021.6 hPa Calm   9.7 km/h 63 % 0.0 mm
15:42 16.2 °C 8.7 °C 1021.2 hPa Calm   9.7 km/h 61 % 0.0 mm
15:52 16.4 °C 9.1 °C 1021.2 hPa WSW 1.6 km/h 8.0 km/h 62 % 0.0 mm
16:02 16.3 °C 8.8 °C 1021.2 hPa Calm   6.4 km/h 61 % 0.0 mm
16:07 16.2 °C 9.1 °C 1021.2 hPa Calm   6.4 km/h 63 % 0.0 mm
16:12 16.2 °C 8.9 °C 1021.2 hPa Calm   3.2 km/h 62 % 0.0 mm
16:17 16.2 °C 8.7 °C 1021.2 hPa Calm   3.2 km/h 61 % 0.0 mm
16:22 16.9 °C 8.3 °C 1020.9 hPa Calm   3.2 km/h 57 % 0.0 mm
16:32 17.2 °C 7.5 °C 1020.9 hPa Calm   6.4 km/h 53 % 0.0 mm
16:37 17.0 °C 8.4 °C 1020.9 hPa Calm   6.4 km/h 57 % 0.0 mm
16:42 17.3 °C 9.5 °C 1020.9 hPa WSW 4.8 km/h 6.4 km/h 60 % 0.0 mm
16:47 17.7 °C 8.8 °C 1020.9 hPa WSW 3.2 km/h 6.4 km/h 56 % 0.0 mm
16:52 17.6 °C 8.5 °C 1020.5 hPa Calm   6.4 km/h 55 % 0.0 mm
16:57 17.3 °C 8.7 °C 1020.5 hPa WSW 1.6 km/h 6.4 km/h 57 % 0.0 mm
17:02 16.9 °C 8.6 °C 1020.5 hPa Calm   4.8 km/h 58 % 0.0 mm
17:07 16.7 °C 9.4 °C 1020.5 hPa Calm   3.2 km/h 62 % 0.0 mm
17:12 17.2 °C 9.6 °C 1020.5 hPa Calm   3.2 km/h 61 % 0.0 mm
17:17 17.6 °C 9.0 °C 1020.5 hPa West 1.6 km/h 4.8 km/h 57 % 0.0 mm
17:22 17.4 °C 8.3 °C 1020.5 hPa Calm   4.8 km/h 55 % 0.0 mm
17:27 17.6 °C 8.2 °C 1020.5 hPa SW 3.2 km/h 4.8 km/h 54 % 0.0 mm
17:32 17.4 °C 8.8 °C 1020.5 hPa SW 3.2 km/h 6.4 km/h 57 % 0.0 mm
17:37 17.0 °C 8.7 °C 1020.5 hPa Calm   6.4 km/h 58 % 0.0 mm
17:42 17.0 °C 8.2 °C 1020.5 hPa Calm   6.4 km/h 56 % 0.0 mm
17:47 17.1 °C 8.0 °C 1020.5 hPa Calm   3.2 km/h 55 % 0.0 mm
17:52 17.4 °C 7.7 °C 1020.5 hPa Calm   6.4 km/h 53 % 0.0 mm
18:02 17.2 °C 8.3 °C 1020.5 hPa Calm   6.4 km/h 56 % 0.0 mm
18:07 17.2 °C 7.8 °C 1020.5 hPa Calm   3.2 km/h 54 % 0.0 mm
18:12 17.3 °C 7.6 °C 1020.5 hPa Calm   3.2 km/h 53 % 0.0 mm
18:17 17.2 °C 7.0 °C 1020.5 hPa Calm   3.2 km/h 51 % 0.0 mm
18:22 17.1 °C 7.4 °C 1020.5 hPa Calm     53 % 0.0 mm
18:27 17.1 °C 6.6 °C 1020.5 hPa Calm     50 % 0.0 mm
18:32 17.1 °C 8.0 °C 1020.5 hPa NE 3.2 km/h   55 % 0.0 mm
18:37 16.7 °C 7.3 °C 1020.5 hPa ENE 3.2 km/h 3.2 km/h 54 % 0.0 mm
18:42 16.4 °C 8.6 °C 1020.5 hPa Calm   6.4 km/h 60 % 0.0 mm
18:47 16.3 °C 8.5 °C 1020.5 hPa Calm   6.4 km/h 60 % 0.0 mm
18:52 16.2 °C 6.9 °C 1020.5 hPa NE 3.2 km/h 3.2 km/h 54 % 0.0 mm
18:57 15.8 °C 7.8 °C 1020.5 hPa NNE 4.8 km/h 8.0 km/h 59 % 0.0 mm
19:02 15.6 °C 7.4 °C 1020.5 hPa NE 3.2 km/h 8.0 km/h 58 % 0.0 mm
19:07 15.3 °C 7.6 °C 1020.5 hPa NE 1.6 km/h 6.4 km/h 60 % 0.0 mm
19:12 15.3 °C 7.3 °C 1020.5 hPa ENE 1.6 km/h 6.4 km/h 59 % 0.0 mm
19:22 15.3 °C 7.3 °C 1020.5 hPa Calm   6.4 km/h 59 % 0.0 mm
19:32 15.2 °C 7.7 °C 1020.5 hPa NE 4.8 km/h 8.0 km/h 61 % 0.0 mm
19:42 15.2 °C 7.7 °C 1020.5 hPa Calm   8.0 km/h 61 % 0.0 mm
19:47 15.2 °C 7.5 °C 1020.5 hPa NE 3.2 km/h 8.0 km/h 60 % 0.0 mm
19:57 15.2 °C 7.7 °C 1020.5 hPa NE 1.6 km/h 6.4 km/h 61 % 0.0 mm
20:02 15.1 °C 7.9 °C 1020.5 hPa Calm   6.4 km/h 62 % 0.0 mm
20:07 15.1 °C 8.1 °C 1020.5 hPa Calm   6.4 km/h 63 % 0.0 mm
20:12 15.0 °C 8.0 °C 1020.9 hPa NE 3.2 km/h 3.2 km/h 63 % 0.0 mm
20:17 14.9 °C 8.4 °C 1020.9 hPa Calm   4.8 km/h 65 % 0.0 mm
20:22 14.8 °C 8.1 °C 1020.9 hPa Calm   4.8 km/h 64 % 0.0 mm
20:32 14.4 °C 8.3 °C 1020.9 hPa Calm     67 % 0.0 mm
20:37 14.2 °C 8.2 °C 1020.9 hPa Calm     67 % 0.0 mm
20:42 14.1 °C 8.3 °C 1020.9 hPa Calm     68 % 0.0 mm
20:47 13.9 °C 8.3 °C 1020.9 hPa Calm     69 % 0.0 mm
20:52 13.8 °C 8.4 °C 1020.9 hPa Calm     70 % 0.0 mm
20:57 13.7 °C 8.3 °C 1020.9 hPa Calm     70 % 0.0 mm
21:02 13.4 °C 8.5 °C 1020.9 hPa Calm     72 % 0.0 mm
21:07 13.1 °C 8.4 °C 1020.9 hPa Calm     73 % 0.0 mm
21:12 12.7 °C 8.2 °C 1020.9 hPa Calm     74 % 0.0 mm
21:17 12.4 °C 8.1 °C 1020.9 hPa Calm     75 % 0.0 mm
21:27 11.7 °C 8.0 °C 1021.2 hPa Calm     78 % 0.0 mm
21:32 11.4 °C 8.1 °C 1021.2 hPa Calm     80 % 0.0 mm
21:42 11.2 °C 7.5 °C 1021.2 hPa Calm     78 % 0.0 mm
21:47 11.4 °C 7.5 °C 1021.2 hPa Calm     77 % 0.0 mm
21:52 11.6 °C 7.5 °C 1021.2 hPa Calm     76 % 0.0 mm
22:02 11.4 °C 7.5 °C 1021.6 hPa Calm     77 % 0.0 mm
22:07 11.4 °C 7.5 °C 1021.6 hPa Calm     77 % 0.0 mm
22:12 11.3 °C 7.4 °C 1021.6 hPa Calm     77 % 0.0 mm
22:17 11.2 °C 7.5 °C 1021.6 hPa Calm     78 % 0.0 mm
22:22 11.0 °C 7.5 °C 1021.6 hPa Calm     79 % 0.0 mm
22:27 10.9 °C 7.4 °C 1021.6 hPa Calm     79 % 0.0 mm
22:32 10.8 °C 7.3 °C 1021.6 hPa Calm     79 % 0.0 mm
22:37 10.6 °C 7.1 °C 1021.6 hPa Calm     79 % 0.0 mm
22:42 10.3 °C 7.0 °C 1021.6 hPa Calm     80 % 0.0 mm
22:52 9.9 °C 7.0 °C 1021.6 hPa Calm     82 % 0.0 mm
22:57 9.6 °C 6.9 °C 1021.6 hPa Calm     83 % 0.0 mm
23:02 9.4 °C 6.8 °C 1021.6 hPa Calm     84 % 0.0 mm
23:07 9.2 °C 6.6 °C 1021.6 hPa Calm     84 % 0.0 mm
23:17 8.9 °C 6.7 °C 1021.6 hPa Calm     86 % 0.0 mm
23:22 8.7 °C 6.7 °C 1021.6 hPa Calm     87 % 0.0 mm
23:32 8.4 °C 6.5 °C 1021.6 hPa Calm     88 % 0.0 mm
23:37 8.5 °C 6.8 °C 1021.6 hPa Calm     89 % 0.0 mm
Meteo18
Compliments of Weather Underground - 4 mb

Script developed by  Jim McMurry - jmcmurry@mwt.net Adapted for the template by  Wim van der Kuil - Leuven-Template.eu

You find our weather info also at:

European Weather Network

Weather Underground

Equipment we use:

Weather-station
Davis Vue

Weather-program
Meteohub

Weather-server
Raspberry PI 2 B+

Provider
1 and 1

Davis Vue

Meteohub

Raspberry PI 2 B+

1 and 1